Time;durP1;ratioP1;P1;durP2;ratioP2;P2;SDS_P1;SDS_P2;PMS_P1;PMS_P2;Temp;Humidity;BMP_temperature;BMP_pressure;BME280_temperature;BME280_humidity;BME280_pressure;Samples;Min_cycle;Max_cycle;Signal;HPM_P1;HPM_P2
2022/04/09 00:02:14;;;;;;;3.65;1.80;;;10.30;99.90;;;;;;5080223;28;20433;-74
2022/04/09 00:04:40;;;;;;;6.63;2.22;;;10.30;99.90;;;;;;5088841;28;20020;-74
2022/04/09 00:07:05;;;;;;;5.03;2.10;;;10.20;99.90;;;;;;5088326;28;20023;-75
2022/04/09 00:09:31;;;;;;;8.95;2.30;;;10.20;99.90;;;;;;5071446;28;20021;-74
2022/04/09 00:11:57;;;;;;;5.40;2.08;;;10.10;99.90;;;;;;5083503;28;20020;-74
2022/04/09 00:14:23;;;;;;;8.68;2.42;;;10.10;99.90;;;;;;5081341;28;20039;-74
2022/04/09 00:16:49;;;;;;;5.63;2.13;;;10.10;99.90;;;;;;5080822;28;20025;-74
2022/04/09 00:19:15;;;;;;;5.95;2.20;;;10.10;99.90;;;;;;5083803;28;20032;-74
2022/04/09 00:21:40;;;;;;;9.88;2.33;;;10.10;99.90;;;;;;5087016;28;20545;-74
2022/04/09 00:24:07;;;;;;;9.30;2.28;;;10.10;99.90;;;;;;5077278;28;20031;-74
2022/04/09 00:26:32;;;;;;;10.25;2.83;;;10.10;99.90;;;;;;5084124;28;20073;-74
2022/04/09 00:28:58;;;;;;;6.13;1.83;;;10.10;99.90;;;;;;5089021;28;20032;-74
2022/04/09 00:31:24;;;;;;;5.45;1.85;;;10.00;99.90;;;;;;5082387;28;20765;-74
2022/04/09 00:33:49;;;;;;;7.97;2.20;;;9.90;99.90;;;;;;5086104;28;20097;-74
2022/04/09 00:36:15;;;;;;;12.32;2.55;;;9.80;99.90;;;;;;5090980;28;20038;-74
2022/04/09 00:38:41;;;;;;;6.72;1.90;;;9.90;99.90;;;;;;5078243;28;20048;-74
2022/04/09 00:41:10;;;;;;;16.70;2.80;;;9.80;99.90;;;;;;5080894;28;20052;-74
2022/04/09 00:43:41;;;;;;;7.85;1.60;;;9.80;99.90;;;;;;5081780;28;20021;-74
2022/04/09 00:46:08;;;;;;;7.85;2.70;;;9.70;99.90;;;;;;5072655;28;20030;-74
2022/04/09 00:48:37;;;;;;;8.70;1.80;;;9.80;99.90;;;;;;5090276;28;20024;-73
2022/04/09 00:51:04;;;;;;;8.77;2.95;;;9.70;99.90;;;;;;5075719;28;20036;-74
2022/04/09 00:53:35;;;;;;;10.23;2.17;;;9.70;99.90;;;;;;5077379;28;20110;-74
2022/04/09 00:56:13;;;;;;;9.90;2.05;;;9.70;99.90;;;;;;5086990;28;20028;-74
2022/04/09 00:58:55;;;;;;;12.98;2.35;;;9.60;99.90;;;;;;5080765;28;20032;-74
2022/04/09 01:01:27;;;;;;;15.60;2.63;;;9.60;99.90;;;;;;5087386;28;20028;-74
2022/04/09 01:03:54;;;;;;;8.60;2.22;;;9.50;99.90;;;;;;5086418;28;20063;-74
2022/04/09 01:06:20;;;;;;;9.40;2.47;;;9.50;99.90;;;;;;5073880;28;20028;-74
2022/04/09 01:08:46;;;;;;;10.80;2.38;;;9.40;99.90;;;;;;5068519;28;20040;-74
2022/04/09 01:11:13;;;;;;;9.00;2.03;;;9.40;99.90;;;;;;5073693;28;20016;-74
2022/04/09 01:13:40;;;;;;;9.02;2.15;;;9.30;99.90;;;;;;5089916;28;20119;-75
2022/04/09 01:16:06;;;;;;;11.25;2.15;;;9.20;99.90;;;;;;5092295;28;20048;-74
2022/04/09 01:18:33;;;;;;;15.88;3.83;;;9.20;99.90;;;;;;5094430;28;20020;-74
2022/04/09 01:21:03;;;;;;;14.07;2.50;;;9.20;99.90;;;;;;5092502;28;20048;-74
2022/04/09 01:23:29;;;;;;;11.20;2.72;;;9.20;99.90;;;;;;5085424;28;20028;-74
2022/04/09 01:25:56;;;;;;;9.25;2.05;;;9.30;99.90;;;;;;5091258;28;20046;-74
2022/04/09 01:28:22;;;;;;;11.30;2.35;;;9.20;99.90;;;;;;5090351;28;20020;-74
2022/04/09 01:30:48;;;;;;;9.73;3.60;;;9.20;99.90;;;;;;5091242;28;20092;-74
2022/04/09 01:33:18;;;;;;;9.45;2.00;;;9.20;99.90;;;;;;5073656;28;20033;-74
2022/04/09 01:35:44;;;;;;;10.07;1.52;;;9.10;99.90;;;;;;5081315;28;20032;-74
2022/04/09 01:38:11;;;;;;;8.70;1.40;;;9.20;99.90;;;;;;5089852;28;20027;-74
2022/04/09 01:40:37;;;;;;;9.63;2.72;;;9.20;99.90;;;;;;5087076;28;20517;-74
2022/04/09 01:43:03;;;;;;;8.02;2.08;;;9.10;99.90;;;;;;5076364;28;20027;-74
2022/04/09 01:45:29;;;;;;;15.10;2.97;;;9.20;99.90;;;;;;5073686;28;20025;-74
2022/04/09 01:47:55;;;;;;;13.57;2.80;;;9.20;99.90;;;;;;5091105;28;20057;-74
2022/04/09 01:50:26;;;;;;;17.45;2.70;;;9.20;99.90;;;;;;5081630;28;20073;-74
2022/04/09 01:52:52;;;;;;;11.07;3.03;;;9.20;99.90;;;;;;5081678;28;20028;-74
2022/04/09 01:55:18;;;;;;;11.88;2.75;;;9.20;99.90;;;;;;5090454;28;20044;-74
2022/04/09 01:57:43;;;;;;;10.77;3.10;;;9.30;99.90;;;;;;5092278;28;20512;-74
2022/04/09 02:00:12;;;;;;;13.50;3.17;;;9.20;99.90;;;;;;5080154;28;20131;-74
2022/04/09 02:02:38;;;;;;;9.07;2.83;;;9.20;99.90;;;;;;5080129;28;20028;-74
2022/04/09 02:05:05;;;;;;;8.68;2.70;;;9.20;99.90;;;;;;5087601;28;20024;-74
2022/04/09 02:07:30;;;;;;;7.03;2.47;;;9.20;99.90;;;;;;5073112;28;20544;-74
2022/04/09 02:09:56;;;;;;;7.85;2.30;;;9.10;99.90;;;;;;5090390;28;20060;-74
2022/04/09 02:12:22;;;;;;;15.63;3.22;;;9.10;99.90;;;;;;5093392;28;20043;-74
2022/04/09 02:14:48;;;;;;;11.20;2.85;;;9.10;99.90;;;;;;5079374;28;20037;-74
2022/04/09 02:17:14;;;;;;;10.90;3.60;;;9.00;99.90;;;;;;5076550;28;20026;-74
2022/04/09 02:19:40;;;;;;;10.55;3.67;;;9.00;99.90;;;;;;5084882;28;20020;-74
2022/04/09 02:22:06;;;;;;;10.73;2.88;;;8.90;99.90;;;;;;5090295;28;20563;-74
2022/04/09 02:24:32;;;;;;;10.30;2.50;;;8.80;99.90;;;;;;5092419;28;20042;-74
2022/04/09 02:26:58;;;;;;;11.02;2.80;;;8.80;99.90;;;;;;5091116;28;20560;-74
2022/04/09 02:29:24;;;;;;;16.83;2.67;;;8.70;99.90;;;;;;5090880;28;20120;-74
2022/04/09 02:31:50;;;;;;;10.65;3.10;;;8.70;99.90;;;;;;5082352;28;20020;-74
2022/04/09 02:34:16;;;;;;;15.27;2.25;;;8.80;99.90;;;;;;5088882;28;20552;-74
2022/04/09 02:36:42;;;;;;;11.75;3.22;;;8.80;99.90;;;;;;5089441;28;20028;-74
2022/04/09 02:39:07;;;;;;;7.80;2.63;;;8.70;99.90;;;;;;5092329;28;20028;-74
2022/04/09 02:41:33;;;;;;;5.45;1.85;;;8.70;99.90;;;;;;5082980;28;20030;-74
2022/04/09 02:43:59;;;;;;;9.00;2.63;;;8.70;99.90;;;;;;5083133;28;20028;-74
2022/04/09 02:46:25;;;;;;;9.02;2.22;;;8.70;99.90;;;;;;5073884;28;20028;-74
2022/04/09 02:48:51;;;;;;;7.68;2.55;;;8.70;99.90;;;;;;5071301;28;20033;-74
2022/04/09 02:51:17;;;;;;;9.60;2.58;;;8.70;99.90;;;;;;5087932;28;20073;-74
2022/04/09 02:53:44;;;;;;;6.28;2.22;;;8.60;99.90;;;;;;5087135;28;20028;-74
2022/04/09 02:56:10;;;;;;;11.52;2.45;;;8.70;99.90;;;;;;5090239;28;20032;-74
2022/04/09 02:58:36;;;;;;;14.20;3.95;;;8.70;99.90;;;;;;5090483;28;20404;-74
2022/04/09 03:01:01;;;;;;;10.00;3.10;;;8.60;99.90;;;;;;5072560;28;20028;-74
2022/04/09 03:03:27;;;;;;;16.33;3.13;;;8.70;99.90;;;;;;5092186;28;20020;-74
2022/04/09 03:05:53;;;;;;;11.38;3.17;;;8.60;99.90;;;;;;5074509;28;20032;-74
2022/04/09 03:08:18;;;;;;;5.97;2.85;;;8.60;99.90;;;;;;5084632;28;20039;-74
2022/04/09 03:10:44;;;;;;;10.20;3.28;;;8.60;99.90;;;;;;5089103;28;20097;-74
2022/04/09 03:13:10;;;;;;;11.73;3.10;;;8.60;99.90;;;;;;5085874;28;20024;-74
2022/04/09 03:15:36;;;;;;;10.27;2.72;;;8.60;99.90;;;;;;5091331;28;20485;-74
2022/04/09 03:18:02;;;;;;;7.50;2.85;;;8.60;99.90;;;;;;5091232;28;20099;-74
2022/04/09 03:20:27;;;;;;;5.93;2.88;;;8.80;99.90;;;;;;5087466;28;20100;-74
2022/04/09 03:22:53;;;;;;;6.88;2.75;;;8.80;99.90;;;;;;5087464;28;20500;-74
2022/04/09 03:25:20;;;;;;;11.00;3.08;;;8.70;99.90;;;;;;5072816;28;20028;-74
2022/04/09 03:27:45;;;;;;;8.73;3.05;;;8.80;99.90;;;;;;5090517;28;20020;-74
2022/04/09 03:30:12;;;;;;;10.77;2.67;;;8.70;99.90;;;;;;5075715;28;20520;-74
2022/04/09 03:32:39;;;;;;;7.07;2.72;;;8.80;99.90;;;;;;5069773;28;20036;-74
2022/04/09 03:35:06;;;;;;;9.82;3.20;;;8.80;99.90;;;;;;5073652;28;20120;-74
2022/04/09 03:37:39;;;;;;;12.63;2.70;;;8.80;99.90;;;;;;5084012;28;20020;-74
2022/04/09 03:40:06;;;;;;;6.88;2.70;;;8.80;99.90;;;;;;5067954;28;20078;-74
2022/04/09 03:42:32;;;;;;;7.53;2.42;;;8.80;99.90;;;;;;5087659;28;20379;-74
2022/04/09 03:44:58;;;;;;;7.15;2.47;;;8.70;99.90;;;;;;5090093;28;20024;-74
2022/04/09 03:47:24;;;;;;;7.75;2.42;;;8.70;99.90;;;;;;5080965;28;20074;-74
2022/04/09 03:49:50;;;;;;;10.60;2.60;;;8.80;99.90;;;;;;5083600;28;20512;-74
2022/04/09 03:52:15;;;;;;;7.70;2.33;;;8.70;99.90;;;;;;5088808;28;20031;-74
2022/04/09 03:54:41;;;;;;;11.27;2.92;;;8.70;99.90;;;;;;5072589;28;20020;-74
2022/04/09 03:57:07;;;;;;;11.07;2.47;;;8.70;99.90;;;;;;5077256;28;20032;-74
2022/04/09 03:59:32;;;;;;;16.30;3.35;;;8.70;99.90;;;;;;5075175;28;20111;-74
2022/04/09 04:01:58;;;;;;;8.07;2.25;;;8.70;99.90;;;;;;5078994;28;20058;-74
2022/04/09 04:04:24;;;;;;;14.65;3.67;;;8.70;99.90;;;;;;5089452;28;20089;-74
2022/04/09 04:06:50;;;;;;;8.57;2.45;;;8.70;99.90;;;;;;5087072;28;20114;-74
2022/04/09 04:09:18;;;;;;;12.27;2.42;;;8.70;99.90;;;;;;5079857;28;20032;-74
2022/04/09 04:11:44;;;;;;;11.77;2.65;;;8.70;99.90;;;;;;5081309;28;20047;-74
2022/04/09 04:14:11;;;;;;;9.18;3.53;;;8.70;99.90;;;;;;5082275;28;20494;-74
2022/04/09 04:16:37;;;;;;;10.98;2.83;;;8.70;99.90;;;;;;5088924;28;20027;-74
2022/04/09 04:19:04;;;;;;;9.98;2.63;;;8.70;99.90;;;;;;5085184;28;20056;-74
2022/04/09 04:21:30;;;;;;;8.57;2.55;;;8.80;99.90;;;;;;5086883;28;20028;-74
2022/04/09 04:23:55;;;;;;;9.02;2.15;;;8.80;99.90;;;;;;5072275;28;20028;-74
2022/04/09 04:26:21;;;;;;;15.30;3.45;;;8.90;99.90;;;;;;5083869;28;20420;-75
2022/04/09 04:28:48;;;;;;;6.88;2.20;;;8.80;99.90;;;;;;5086548;28;20401;-74
2022/04/09 04:31:17;;;;;;;10.07;3.38;;;8.80;99.90;;;;;;5088773;28;20024;-74
2022/04/09 04:33:43;;;;;;;13.05;3.00;;;8.80;99.90;;;;;;5087404;28;20027;-74
2022/04/09 04:36:09;;;;;;;11.02;2.80;;;8.80;99.90;;;;;;5089769;28;20046;-74
2022/04/09 04:38:35;;;;;;;6.80;1.95;;;8.80;99.90;;;;;;5086567;28;20020;-74
2022/04/09 04:41:02;;;;;;;11.48;2.70;;;8.80;99.90;;;;;;5080461;28;20404;-74
2022/04/09 04:43:28;;;;;;;8.88;2.97;;;8.90;99.90;;;;;;5087722;28;20211;-74
2022/04/09 04:45:53;;;;;;;10.65;2.67;;;8.80;99.90;;;;;;5085972;28;20464;-74
2022/04/09 04:48:22;;;;;;;11.65;3.10;;;8.90;99.90;;;;;;5085514;28;20063;-74
2022/04/09 04:50:48;;;;;;;10.50;2.55;;;8.80;99.90;;;;;;5092686;28;20030;-74
2022/04/09 04:53:14;;;;;;;13.02;2.80;;;8.90;99.90;;;;;;5085262;28;20099;-74
2022/04/09 04:55:40;;;;;;;14.23;3.13;;;8.90;99.90;;;;;;5075759;28;20123;-74
2022/04/09 04:58:06;;;;;;;9.98;2.30;;;8.80;99.90;;;;;;5089089;28;20095;-74
2022/04/09 05:00:33;;;;;;;11.90;2.78;;;8.80;99.90;;;;;;5089065;28;20048;-74
2022/04/09 05:02:58;;;;;;;11.05;2.47;;;8.90;99.90;;;;;;5080044;28;20031;-74
2022/04/09 05:05:25;;;;;;;10.90;2.30;;;8.90;99.90;;;;;;5086592;28;20032;-74
2022/04/09 05:07:52;;;;;;;7.65;2.83;;;8.90;99.90;;;;;;5089944;28;20090;-74
2022/04/09 05:10:23;;;;;;;8.93;2.33;;;9.00;99.90;;;;;;5091848;28;20038;-74
2022/04/09 05:12:49;;;;;;;7.63;1.73;;;9.00;99.90;;;;;;5091657;28;20024;-74
2022/04/09 05:15:16;;;;;;;6.25;2.10;;;8.90;99.90;;;;;;5073746;28;20028;-74
2022/04/09 05:17:43;;;;;;;10.63;2.22;;;9.00;99.90;;;;;;5087719;28;20027;-74
2022/04/09 05:20:11;;;;;;;6.80;2.65;;;9.00;99.90;;;;;;5091628;28;20089;-74
2022/04/09 05:22:41;;;;;;;7.57;1.92;;;9.00;99.90;;;;;;5091469;28;20062;-74
2022/04/09 05:25:08;;;;;;;8.27;1.90;;;9.00;99.90;;;;;;5091491;28;20085;-74
2022/04/09 05:27:34;;;;;;;9.73;2.00;;;8.90;99.90;;;;;;5093915;28;20012;-74
2022/04/09 05:29:59;;;;;;;11.35;2.83;;;9.00;99.90;;;;;;5083999;28;20035;-74
2022/04/09 05:32:25;;;;;;;14.50;3.72;;;8.90;99.90;;;;;;5091046;28;20404;-74
2022/04/09 05:34:51;;;;;;;7.95;2.67;;;8.80;99.90;;;;;;5083594;28;20025;-74
2022/04/09 05:37:16;;;;;;;7.60;2.75;;;8.90;99.90;;;;;;5091744;28;20028;-74
2022/04/09 05:39:43;;;;;;;9.88;2.08;;;8.90;99.90;;;;;;5092063;28;20378;-74
2022/04/09 05:42:10;;;;;;;5.13;2.25;;;8.90;99.90;;;;;;5071873;28;20520;-74
2022/04/09 05:44:36;;;;;;;13.18;2.50;;;8.90;99.90;;;;;;5088394;28;20036;-74
2022/04/09 05:47:02;;;;;;;11.65;2.13;;;8.80;99.90;;;;;;5090547;28;20027;-74
2022/04/09 05:49:28;;;;;;;10.38;2.90;;;8.90;99.90;;;;;;5090971;28;20036;-74
2022/04/09 05:51:54;;;;;;;15.07;3.47;;;8.90;99.90;;;;;;5091045;28;20749;-74
2022/04/09 05:54:19;;;;;;;8.75;2.80;;;8.80;99.90;;;;;;5092048;28;20035;-74
2022/04/09 05:56:45;;;;;;;11.48;2.15;;;8.70;99.90;;;;;;5090240;28;20044;-74
2022/04/09 05:59:11;;;;;;;9.60;2.63;;;8.80;99.90;;;;;;5090062;28;20020;-74
2022/04/09 06:01:37;;;;;;;13.00;2.95;;;8.70;99.90;;;;;;5082005;28;20099;-74
2022/04/09 06:04:02;;;;;;;13.57;3.17;;;8.70;99.90;;;;;;5074090;28;20480;-74
2022/04/09 06:06:28;;;;;;;7.35;2.30;;;8.70;99.90;;;;;;5092589;28;20401;-74
2022/04/09 06:08:54;;;;;;;6.63;1.80;;;8.70;99.90;;;;;;5083777;28;20459;-74
2022/04/09 06:11:20;;;;;;;9.00;3.13;;;8.60;99.90;;;;;;5090201;28;20031;-74
2022/04/09 06:13:46;;;;;;;18.42;2.65;;;8.60;99.90;;;;;;5090954;28;20405;-74
2022/04/09 06:16:12;;;;;;;11.85;2.63;;;8.60;99.90;;;;;;5086106;28;20024;-74
2022/04/09 06:18:38;;;;;;;11.90;2.63;;;8.50;99.90;;;;;;5087757;28;20450;-74
2022/04/09 06:21:09;;;;;;;9.25;3.00;;;8.60;99.90;;;;;;5083972;28;20034;-74
2022/04/09 06:23:35;;;;;;;;;;;8.70;99.90;;;;;;5089915;28;20029;-74
2022/04/09 06:26:01;;;;;;;12.45;2.20;;;8.60;99.90;;;;;;5090062;28;19977;-74
2022/04/09 06:28:27;;;;;;;13.68;2.45;;;8.60;99.90;;;;;;5090291;28;20016;-74
2022/04/09 06:30:53;;;;;;;10.93;2.35;;;8.60;99.90;;;;;;5090822;28;20405;-74
2022/04/09 06:33:20;;;;;;;7.72;2.20;;;8.60;99.90;;;;;;5092473;28;20039;-74
2022/04/09 06:35:47;;;;;;;6.28;2.25;;;8.50;99.90;;;;;;5082411;28;20085;-74
2022/04/09 06:38:13;;;;;;;6.43;2.00;;;8.50;99.90;;;;;;5088555;28;20065;-74
2022/04/09 06:40:39;;;;;;;6.65;1.90;;;8.70;99.90;;;;;;5087468;28;20024;-74
2022/04/09 06:43:05;;;;;;;3.75;1.40;;;8.70;99.90;;;;;;5090544;28;20024;-74
2022/04/09 06:45:31;;;;;;;3.38;2.17;;;8.60;99.90;;;;;;5092661;28;20070;-74
2022/04/09 06:47:57;;;;;;;4.18;1.95;;;8.60;99.90;;;;;;5089129;28;20063;-74
2022/04/09 06:50:22;;;;;;;10.50;2.15;;;8.70;99.90;;;;;;5086509;28;20551;-74
2022/04/09 06:52:48;;;;;;;8.45;3.10;;;8.70;99.90;;;;;;5089617;28;20409;-74
2022/04/09 06:55:14;;;;;;;9.07;2.85;;;8.60;99.90;;;;;;5090461;28;20048;-74
2022/04/09 06:57:44;;;;;;;9.48;2.17;;;8.60;99.90;;;;;;5089699;28;20056;-74
2022/04/09 07:00:14;;;;;;;6.35;1.70;;;8.60;99.90;;;;;;5077086;28;20489;-74
2022/04/09 07:02:41;;;;;;;7.38;2.38;;;8.80;99.90;;;;;;5072882;28;20324;-74
2022/04/09 07:05:07;;;;;;;6.22;2.10;;;8.80;99.90;;;;;;5074329;28;20017;-74
2022/04/09 07:07:33;;;;;;;10.55;2.75;;;8.80;99.90;;;;;;5089901;28;20028;-74
2022/04/09 07:10:09;;;;;;;6.72;1.77;;;8.90;99.90;;;;;;5087004;28;20032;-74
2022/04/09 07:12:36;;;;;;;5.00;1.52;;;8.90;99.90;;;;;;5069655;28;20237;-74
2022/04/09 07:15:02;;;;;;;6.00;1.83;;;8.80;99.90;;;;;;5089399;28;20102;-74
2022/04/09 07:17:29;;;;;;;8.25;1.73;;;8.80;99.90;;;;;;5089106;28;20030;-74
2022/04/09 07:19:59;;;;;;;7.13;1.65;;;8.90;99.90;;;;;;5090001;28;20512;-74
2022/04/09 07:22:25;;;;;;;7.57;1.83;;;8.90;99.90;;;;;;5088543;28;20024;-74
2022/04/09 07:24:51;;;;;;;7.35;2.20;;;8.80;99.90;;;;;;5070668;28;20028;-74
2022/04/09 07:27:17;;;;;;;7.40;1.73;;;8.80;99.90;;;;;;5085115;28;20451;-74
2022/04/09 07:29:42;;;;;;;6.35;2.00;;;8.80;99.90;;;;;;5080314;28;20051;-74
2022/04/09 07:32:08;;;;;;;7.22;1.65;;;8.90;99.90;;;;;;5077893;28;20084;-74
2022/04/09 07:34:34;;;;;;;5.55;1.45;;;8.90;99.90;;;;;;5089594;28;20089;-74
2022/04/09 07:37:00;;;;;;;5.13;1.73;;;9.20;99.90;;;;;;5073787;28;20489;-74
2022/04/09 07:39:26;;;;;;;5.18;1.67;;;9.20;99.90;;;;;;5071612;28;20032;-74
2022/04/09 07:41:51;;;;;;;9.10;1.92;;;9.20;99.90;;;;;;5088310;28;20020;-74
2022/04/09 07:44:17;;;;;;;5.03;1.38;;;9.10;99.90;;;;;;5081026;28;20439;-74
2022/04/09 07:46:43;;;;;;;4.57;1.30;;;9.20;99.90;;;;;;5089326;28;20497;-74
2022/04/09 07:49:08;;;;;;;7.82;1.70;;;9.30;99.90;;;;;;5086635;28;20141;-74
2022/04/09 07:51:34;;;;;;;3.65;1.48;;;9.30;99.90;;;;;;5091236;28;20030;-74
2022/04/09 07:54:00;;;;;;;6.78;1.85;;;9.40;99.90;;;;;;5089519;28;20505;-73
2022/04/09 07:56:25;;;;;;;9.18;1.70;;;9.40;99.90;;;;;;5083399;28;20471;-74
2022/04/09 07:58:51;;;;;;;6.15;2.08;;;9.50;99.90;;;;;;5085219;28;20020;-74
2022/04/09 08:01:17;;;;;;;6.88;1.52;;;9.50;99.90;;;;;;5069346;28;20016;-74
2022/04/09 08:03:42;;;;;;;4.38;1.98;;;9.60;99.90;;;;;;5086683;28;20020;-74
2022/04/09 08:06:08;;;;;;;6.50;2.05;;;9.60;99.90;;;;;;5077717;28;20029;-74
2022/04/09 08:08:34;;;;;;;3.20;1.55;;;9.90;99.90;;;;;;5078626;28;20978;-73
2022/04/09 08:11:00;;;;;;;6.13;2.10;;;9.80;99.90;;;;;;5068762;28;20111;-74
2022/04/09 08:13:26;;;;;;;7.38;1.98;;;10.40;99.90;;;;;;5076027;28;20040;-73
2022/04/09 08:15:52;;;;;;;3.70;2.13;;;11.40;99.90;;;;;;5070157;28;20025;-73
2022/04/09 08:18:18;;;;;;;5.05;2.20;;;11.90;99.90;;;;;;5070103;28;20497;-73
2022/04/09 08:20:44;;;;;;;4.80;2.40;;;11.40;99.90;;;;;;5085709;28;20051;-74
2022/04/09 08:23:09;;;;;;;6.15;2.42;;;11.00;99.90;;;;;;5089430;28;20244;-73
2022/04/09 08:25:35;;;;;;;9.50;3.55;;;10.90;99.90;;;;;;5090326;28;20497;-74
2022/04/09 08:28:02;;;;;;;9.00;3.45;;;10.90;99.90;;;;;;5080991;28;20035;-75
2022/04/09 08:30:29;;;;;;;9.55;3.17;;;10.70;99.90;;;;;;5097290;28;20020;-75
2022/04/09 08:32:56;;;;;;;6.28;2.33;;;10.70;99.90;;;;;;5086731;28;20028;-76
2022/04/09 08:35:22;;;;;;;6.53;2.85;;;10.70;99.90;;;;;;5078343;28;20177;-75
2022/04/09 08:37:55;;;;;;;8.02;2.10;;;10.40;99.90;;;;;;5082270;28;20031;-74
2022/04/09 08:40:24;;;;;;;6.20;1.90;;;10.50;99.90;;;;;;5094335;28;20028;-76
2022/04/09 08:42:49;;;;;;;7.68;2.70;;;10.60;99.90;;;;;;5091489;28;20043;-75
2022/04/09 08:45:16;;;;;;;9.13;2.40;;;10.60;99.90;;;;;;5089613;28;20501;-75
2022/04/09 08:47:44;;;;;;;9.32;3.22;;;10.60;99.90;;;;;;5094723;28;20031;-75
2022/04/09 08:50:14;;;;;;;6.90;2.80;;;10.50;99.90;;;;;;5085422;28;20165;-75
2022/04/09 08:52:41;;;;;;;4.18;2.25;;;10.60;99.90;;;;;;5076269;28;20016;-74
2022/04/09 08:55:09;;;;;;;3.95;1.65;;;10.60;99.90;;;;;;5076184;28;20043;-75
2022/04/09 08:57:35;;;;;;;4.28;1.88;;;10.50;99.90;;;;;;5087690;28;20023;-75
2022/04/09 09:00:19;;;;;;;5.07;1.77;;;10.70;99.90;;;;;;5073848;28;20031;-75
2022/04/09 09:02:55;;;;;;;5.13;2.13;;;10.50;99.90;;;;;;5091043;28;20495;-75
2022/04/09 09:05:33;;;;;;;5.15;2.42;;;10.70;99.90;;;;;;5094532;28;20035;-74
2022/04/09 09:07:58;;;;;;;4.78;2.40;;;10.60;99.90;;;;;;5092920;28;20035;-75
2022/04/09 09:10:24;;;;;;;4.40;2.05;;;10.60;99.90;;;;;;5094511;28;20556;-75
2022/04/09 09:13:05;;;;;;;4.82;2.08;;;10.80;99.90;;;;;;5086750;28;20530;-75
2022/04/09 09:15:57;;;;;;;5.05;2.20;;;10.80;99.90;;;;;;5079537;28;20040;-74
2022/04/09 09:18:25;;;;;;;3.72;1.80;;;10.80;99.90;;;;;;5095706;28;20128;-74
2022/04/09 09:20:55;;;;;;;5.05;1.63;;;10.80;99.90;;;;;;5088536;28;20109;-75
2022/04/09 09:23:21;;;;;;;5.40;2.63;;;10.90;99.90;;;;;;5093927;28;20099;-75
2022/04/09 09:25:51;;;;;;;4.97;1.55;;;10.90;99.90;;;;;;5087627;28;20099;-75
2022/04/09 09:28:32;;;;;;;3.95;1.60;;;10.90;99.90;;;;;;5093439;28;20047;-76
2022/04/09 09:30:59;;;;;;;3.80;1.98;;;10.90;99.90;;;;;;5094481;28;26571;-77
2022/04/09 09:33:26;;;;;;;4.03;2.10;;;11.10;99.90;;;;;;5080532;28;20040;-76
2022/04/09 09:35:55;;;;;;;3.15;1.60;;;11.50;99.90;;;;;;5088258;28;20032;-72
2022/04/09 09:38:24;;;;;;;4.00;1.33;;;11.80;99.90;;;;;;5084359;28;20024;-72
2022/04/09 09:40:50;;;;;;;4.65;1.63;;;12.00;99.90;;;;;;5081983;28;20032;-74
2022/04/09 09:43:20;;;;;;;4.00;1.45;;;13.20;99.90;;;;;;5087420;28;20048;-75
2022/04/09 09:45:48;;;;;;;4.25;1.20;;;13.10;99.90;;;;;;5073248;28;20020;-76
2022/04/09 09:48:23;;;;;;;2.63;1.70;;;12.60;99.90;;;;;;5092935;28;20085;-76
2022/04/09 09:50:51;;;;;;;3.28;1.75;;;12.30;99.90;;;;;;5078726;28;20033;-75
2022/04/09 09:53:36;;;;;;;4.25;1.95;;;11.60;99.90;;;;;;5071569;28;20098;-75
2022/04/09 09:56:04;;;;;;;3.58;1.98;;;11.30;99.90;;;;;;5072419;28;20049;-74
2022/04/09 09:58:31;;;;;;;5.35;2.58;;;11.40;99.90;;;;;;5071202;28;20073;-74
2022/04/09 10:00:58;;;;;;;5.70;1.88;;;11.70;99.90;;;;;;5074128;28;20052;-73
2022/04/09 10:03:25;;;;;;;2.63;1.40;;;12.00;99.90;;;;;;5076098;28;20029;-72
2022/04/09 10:05:51;;;;;;;2.20;1.10;;;12.30;99.90;;;;;;5078085;28;20108;-70
2022/04/09 10:08:18;;;;;;;9.13;3.65;;;13.20;99.90;;;;;;5071168;28;20115;-72
2022/04/09 10:10:50;;;;;;;9.68;3.33;;;13.90;99.70;;;;;;5078559;28;20024;-75
2022/04/09 10:13:21;;;;;;;10.55;2.85;;;14.40;98.70;;;;;;5091246;28;20024;-71
2022/04/09 10:15:51;;;;;;;8.07;2.50;;;14.50;97.80;;;;;;5080530;28;20016;-73
2022/04/09 10:18:24;;;;;;;5.88;1.90;;;14.00;97.60;;;;;;5072767;28;20052;-75
2022/04/09 10:20:59;;;;;;;2.83;1.48;;;13.60;97.80;;;;;;5079222;28;20099;-73
2022/04/09 10:23:27;;;;;;;4.90;1.95;;;13.20;98.10;;;;;;5083805;28;20063;-72
2022/04/09 10:25:53;;;;;;;4.78;1.55;;;13.00;98.90;;;;;;5072040;28;20051;-72
2022/04/09 10:28:36;;;;;;;4.78;1.20;;;13.80;98.30;;;;;;5074536;28;20040;-71
2022/04/09 10:31:02;;;;;;;3.65;1.00;;;14.30;97.30;;;;;;5090106;28;20074;-74
2022/04/09 10:33:33;;;;;;;2.33;1.02;;;14.30;96.70;;;;;;5088466;28;20032;-74
2022/04/09 10:36:02;;;;;;;3.15;0.82;;;14.50;96.20;;;;;;5070151;28;20050;-75
2022/04/09 10:38:28;;;;;;;4.18;1.15;;;14.70;96.10;;;;;;5075132;28;20035;-75
2022/04/09 10:40:57;;;;;;;3.30;1.20;;;15.00;95.30;;;;;;5072914;28;20051;-73
2022/04/09 10:43:22;;;;;;;1.67;0.75;;;14.90;94.10;;;;;;5070841;28;20028;-73
2022/04/09 10:46:16;;;;;;;2.83;1.17;;;15.10;94.60;;;;;;5071727;28;20601;-73
2022/04/09 10:48:44;;;;;;;3.40;1.40;;;14.10;95.40;;;;;;5082941;28;20012;-73
2022/04/09 10:51:14;;;;;;;3.13;1.20;;;14.00;95.90;;;;;;5084664;28;20028;-73
2022/04/09 10:53:41;;;;;;;2.83;1.27;;;14.10;95.50;;;;;;5088059;28;20034;-72
2022/04/09 10:56:21;;;;;;;3.30;1.10;;;14.30;95.50;;;;;;5070314;28;20037;-74
2022/04/09 10:59:16;;;;;;;0.75;0.50;;;14.30;95.60;;;;;;5087090;28;20017;-75
2022/04/09 11:01:48;;;;;;;2.97;1.30;;;14.00;95.80;;;;;;5082779;28;20036;-74
2022/04/09 11:04:26;;;;;;;1.27;0.60;;;13.60;96.30;;;;;;5075284;28;20024;-73
2022/04/09 11:07:03;;;;;;;2.70;0.98;;;13.80;96.20;;;;;;5071602;28;20036;-72
2022/04/09 11:09:49;;;;;;;1.17;0.55;;;13.60;96.20;;;;;;5080552;28;20037;-74
2022/04/09 11:12:26;;;;;;;0.50;0.50;;;14.00;96.30;;;;;;5085296;28;20093;-74
2022/04/09 11:14:56;;;;;;;2.38;0.52;;;14.20;96.90;;;;;;5068722;28;20076;-74
2022/04/09 11:17:35;;;;;;;4.15;1.40;;;14.00;96.30;;;;;;5079050;28;20025;-74
2022/04/09 11:20:04;;;;;;;0.80;0.50;;;14.30;95.60;;;;;;5083633;28;20028;-73
2022/04/09 11:22:32;;;;;;;1.13;0.57;;;14.30;95.70;;;;;;5075978;28;20481;-73
2022/04/09 11:24:58;;;;;;;1.73;0.63;;;14.20;95.30;;;;;;5070901;28;20082;-74
2022/04/09 11:27:29;;;;;;;1.42;0.50;;;14.60;96.00;;;;;;5084720;28;20493;-74
2022/04/09 11:29:55;;;;;;;1.13;0.80;;;14.60;94.70;;;;;;5073025;28;20249;-73
2022/04/09 11:32:22;;;;;;;1.92;0.60;;;14.40;94.60;;;;;;5083313;28;20036;-74
2022/04/09 11:35:00;;;;;;;1.17;0.70;;;14.50;94.30;;;;;;5082062;28;20131;-74
2022/04/09 11:37:29;;;;;;;0.65;0.50;;;14.40;93.20;;;;;;5072053;28;20028;-73
2022/04/09 11:39:57;;;;;;;1.40;0.70;;;14.50;93.00;;;;;;5085468;28;22909;-73
2022/04/09 11:42:23;;;;;;;1.60;0.45;;;14.60;93.00;;;;;;5079029;28;20521;-73
2022/04/09 11:44:49;;;;;;;1.35;0.70;;;15.10;93.40;;;;;;5068913;28;20067;-74
2022/04/09 11:47:23;;;;;;;1.83;0.63;;;15.00;92.00;;;;;;5074777;28;20434;-73
2022/04/09 11:49:48;;;;;;;2.25;0.70;;;14.90;93.00;;;;;;5069727;28;20028;-73
2022/04/09 11:52:28;;;;;;;3.00;1.02;;;14.60;93.20;;;;;;5084541;28;20035;-73
2022/04/09 11:54:55;;;;;;;5.38;1.90;;;14.40;93.50;;;;;;5087442;28;20040;-73
2022/04/09 11:57:22;;;;;;;3.28;1.40;;;13.90;93.40;;;;;;5089506;28;20042;-73
2022/04/09 11:59:52;;;;;;;2.30;1.35;;;13.80;94.90;;;;;;5084678;28;20020;-73
2022/04/09 12:02:26;;;;;;;2.57;0.87;;;14.20;94.50;;;;;;5087983;28;20032;-73
2022/04/09 12:04:56;;;;;;;1.85;0.90;;;14.40;93.90;;;;;;5084758;28;20008;-73
2022/04/09 12:07:25;;;;;;;1.73;1.17;;;14.60;93.30;;;;;;5081729;28;20025;-73
2022/04/09 12:09:51;;;;;;;1.15;0.93;;;14.70;92.90;;;;;;5085758;28;20023;-73
2022/04/09 12:12:19;;;;;;;3.95;0.98;;;14.80;92.30;;;;;;5087577;28;20059;-73
2022/04/09 12:14:54;;;;;;;2.70;1.05;;;14.80;92.90;;;;;;5085798;28;20042;-73
2022/04/09 12:17:23;;;;;;;1.77;0.70;;;15.00;93.60;;;;;;5076136;28;20066;-74
2022/04/09 12:19:50;;;;;;;1.35;0.77;;;15.00;93.10;;;;;;5086272;28;20032;-75
2022/04/09 12:22:19;;;;;;;0.90;0.90;;;14.90;93.30;;;;;;5087463;28;20048;-74
2022/04/09 12:24:58;;;;;;;0.50;0.50;;;14.90;93.10;;;;;;5084632;28;20060;-75
2022/04/09 12:27:46;;;;;;;0.57;0.50;;;15.00;92.80;;;;;;5071549;28;20030;-75
2022/04/09 12:30:13;;;;;;;1.35;0.63;;;15.50;93.00;;;;;;5079786;28;20059;-75
2022/04/09 12:32:41;;;;;;;2.75;0.40;;;15.40;92.10;;;;;;5076914;28;20078;-75
2022/04/09 12:35:08;;;;;;;3.28;1.30;;;15.20;92.00;;;;;;5082983;28;20024;-74
2022/04/09 12:37:47;;;;;;;4.10;1.55;;;15.20;92.20;;;;;;5072001;28;20074;-75
2022/04/09 12:40:18;;;;;;;3.25;1.25;;;15.10;92.30;;;;;;5075095;28;20102;-75
2022/04/09 12:42:46;;;;;;;2.38;1.00;;;14.90;92.30;;;;;;5077189;28;20017;-75
2022/04/09 12:45:23;;;;;;;2.50;0.93;;;14.70;93.10;;;;;;5071231;28;20025;-75
2022/04/09 12:48:05;;;;;;;2.65;0.95;;;14.20;95.50;;;;;;5068545;28;20025;-76
2022/04/09 12:50:31;;;;;;;;;;;13.80;98.90;;;;;;5076377;28;20035;-76
2022/04/09 12:52:59;;;;;;;1.60;0.52;;;13.60;99.50;;;;;;5088332;28;19962;-76
2022/04/09 12:55:26;;;;;;;1.75;0.57;;;13.50;99.90;;;;;;5078917;28;20075;-76